Time;durP1;ratioP1;P1;durP2;ratioP2;P2;SDS_P1;SDS_P2;PMS_P1;PMS_P2;Temp;Humidity;BMP_temperature;BMP_pressure;BME280_temperature;BME280_humidity;BME280_pressure;Samples;Min_cycle;Max_cycle;Signal;HPM_P1;HPM_P2
2022/06/01 00:01:01;;;;;;;1.97;1.87;;;;;;;13.68;100.00;96228.13;5027057;28;20230;-85
2022/06/01 00:03:31;;;;;;;3.30;1.90;;;;;;;13.68;100.00;96227.31;5028401;28;20302;-85
2022/06/01 00:05:59;;;;;;;1.70;1.60;;;;;;;13.60;100.00;96212.31;5053262;28;20202;-84
2022/06/01 00:08:27;;;;;;;2.97;1.70;;;;;;;13.58;100.00;96200.88;5028757;28;20194;-84
2022/06/01 00:10:57;;;;;;;2.40;2.00;;;;;;;13.63;100.00;96218.03;5016404;28;20210;-85
2022/06/01 00:13:24;;;;;;;1.90;1.80;;;;;;;13.66;100.00;96224.03;5037005;28;20198;-84
2022/06/01 00:15:51;;;;;;;2.67;1.60;;;;;;;13.70;100.00;96214.28;5032979;28;20228;-85
2022/06/01 00:18:19;;;;;;;1.90;1.57;;;;;;;13.66;100.00;96213.16;5025460;28;20225;-84
2022/06/01 00:20:46;;;;;;;2.23;1.73;;;;;;;13.63;100.00;96211.78;5027229;28;20203;-85
2022/06/01 00:23:14;;;;;;;3.77;1.70;;;;;;;13.54;100.00;96211.41;5042828;28;20202;-85
2022/06/01 00:25:42;;;;;;;2.40;1.70;;;;;;;13.56;100.00;96222.00;5038477;28;20353;-84
2022/06/01 00:28:11;;;;;;;1.77;1.67;;;;;;;13.67;100.00;96225.66;5029808;28;20216;-85
2022/06/01 00:30:38;;;;;;;1.63;1.50;;;;;;;13.64;100.00;96222.38;5023812;28;20197;-84
2022/06/01 00:33:05;;;;;;;1.60;1.50;;;;;;;13.59;100.00;96214.19;5027202;28;20210;-85
2022/06/01 00:35:33;;;;;;;1.43;1.33;;;;;;;13.58;100.00;96226.09;5027617;28;20209;-84
2022/06/01 00:38:00;;;;;;;1.50;1.40;;;;;;;13.53;100.00;96236.06;5044869;28;20209;-84
2022/06/01 00:40:29;;;;;;;1.30;1.20;;;;;;;13.57;100.00;96232.59;5029364;28;20234;-84
2022/06/01 00:43:00;;;;;;;2.70;1.50;;;;;;;13.57;100.00;96235.31;5024052;28;20217;-84
2022/06/01 00:45:30;;;;;;;2.30;1.50;;;;;;;13.61;100.00;96246.47;5023046;28;20207;-85
2022/06/01 00:47:58;;;;;;;1.90;1.50;;;;;;;13.61;100.00;96238.31;5030036;28;20209;-84
2022/06/01 00:50:28;;;;;;;1.70;1.60;;;;;;;13.67;100.00;96242.78;5028759;28;20210;-85
2022/06/01 00:53:00;;;;;;;1.53;1.43;;;;;;;13.68;100.00;96230.03;5029775;28;20206;-85
2022/06/01 00:55:31;;;;;;;2.23;1.40;;;;;;;13.64;100.00;96235.13;5026303;28;20305;-85
2022/06/01 00:58:04;;;;;;;1.40;1.30;;;;;;;13.59;100.00;96240.50;5039253;28;20210;-85
2022/06/01 01:00:38;;;;;;;2.90;1.60;;;;;;;13.58;100.00;96236.97;5023688;28;20226;-85
2022/06/01 01:03:10;;;;;;;1.40;1.30;;;;;;;13.57;100.00;96238.03;5027077;28;20211;-85
2022/06/01 01:05:40;;;;;;;1.60;1.50;;;;;;;13.62;100.00;96232.66;5042366;28;20198;-85
2022/06/01 01:08:09;;;;;;;4.07;1.30;;;;;;;13.61;100.00;96222.88;5041286;28;20214;-85
2022/06/01 01:10:36;;;;;;;1.43;1.33;;;;;;;13.68;100.00;96232.75;5037873;28;20199;-84
2022/06/01 01:13:08;;;;;;;1.30;1.20;;;;;;;13.63;100.00;96219.91;5023593;28;20256;-84
2022/06/01 01:15:41;;;;;;;1.43;1.30;;;;;;;13.61;100.00;96228.31;5027704;28;20567;-84
2022/06/01 01:18:11;;;;;;;2.23;1.50;;;;;;;13.57;100.00;96218.22;5039151;28;20210;-84
2022/06/01 01:20:57;;;;;;;1.40;1.30;;;;;;;13.46;100.00;96198.28;5026641;28;20261;-84
2022/06/01 01:23:32;;;;;;;3.03;1.30;;;;;;;13.47;100.00;96191.78;5038384;28;20206;-85
2022/06/01 01:26:00;;;;;;;1.47;1.30;;;;;;;13.42;100.00;96204.47;5027789;28;20213;-85
2022/06/01 01:28:28;;;;;;;1.60;1.40;;;;;;;13.47;100.00;96209.94;5041029;28;20206;-85
2022/06/01 01:31:05;;;;;;;1.63;1.33;;;;;;;13.45;100.00;96204.75;5027599;28;20238;-85
2022/06/01 01:33:33;;;;;;;1.27;1.17;;;;;;;13.50;100.00;96191.28;5028287;28;20218;-85
2022/06/01 01:36:04;;;;;;;2.93;1.20;;;;;;;13.46;100.00;96190.13;5033064;28;20211;-85
2022/06/01 01:38:40;;;;;;;1.93;1.33;;;;;;;13.49;100.00;96186.94;5028161;28;20209;-85
2022/06/01 01:41:13;;;;;;;1.30;1.10;;;;;;;13.42;100.00;96178.16;5027400;28;20230;-85
2022/06/01 01:43:52;;;;;;;1.37;1.27;;;;;;;13.48;100.00;96181.75;5024062;28;20318;-85
2022/06/01 01:46:19;;;;;;;1.63;1.30;;;;;;;13.48;100.00;96177.16;5026848;28;20202;-85
2022/06/01 01:48:47;;;;;;;1.20;1.10;;;;;;;13.40;100.00;96169.47;5031496;28;20212;-85
2022/06/01 01:51:20;;;;;;;0.90;0.90;;;;;;;13.43;100.00;96176.28;5028017;28;20209;-85
2022/06/01 01:53:48;;;;;;;3.17;1.10;;;;;;;13.34;100.00;96167.75;5025513;28;20604;-85
2022/06/01 01:56:41;;;;;;;1.10;1.00;;;;;;;13.40;100.00;96171.34;5024011;28;20213;-85
2022/06/01 01:59:21;;;;;;;1.20;1.10;;;;;;;13.37;100.00;96178.09;5036905;28;20318;-85
2022/06/01 02:01:56;;;;;;;3.40;1.10;;;;;;;13.39;100.00;96175.94;5041886;28;20208;-85
2022/06/01 02:07:24;;;;;;;1.37;1.20;;;;;;;13.41;100.00;96181.94;5039452;28;20221;-86
2022/06/01 02:12:44;;;;;;;4.00;1.30;;;;;;;13.30;100.00;96166.63;5024284;28;20235;-85
2022/06/01 02:15:18;;;;;;;1.57;1.10;;;;;;;13.28;100.00;96174.16;5031130;28;20256;-85
2022/06/01 02:17:50;;;;;;;1.23;1.13;;;;;;;13.26;100.00;96176.34;5030138;28;20220;-84
2022/06/01 02:20:23;;;;;;;2.30;1.10;;;;;;;13.36;100.00;96176.44;5041706;28;20218;-85
2022/06/01 02:22:51;;;;;;;1.27;1.17;;;;;;;13.36;100.00;96170.19;5026273;28;20206;-85
2022/06/01 02:25:19;;;;;;;1.10;1.00;;;;;;;13.32;100.00;96163.66;5025529;28;20202;-85
2022/06/01 02:27:51;;;;;;;2.60;1.20;;;;;;;13.23;100.00;96158.66;5041143;28;20264;-85
2022/06/01 02:30:22;;;;;;;0.80;0.80;;;;;;;13.33;100.00;96160.69;5037589;28;20211;-85
2022/06/01 02:32:50;;;;;;;4.10;1.00;;;;;;;13.33;100.00;96168.81;5038663;28;20194;-85
2022/06/01 02:35:20;;;;;;;0.90;0.90;;;;;;;13.33;100.00;96168.81;5025091;28;20209;-85
2022/06/01 02:37:52;;;;;;;2.63;1.27;;;;;;;13.30;100.00;96161.19;5021301;28;20206;-85
2022/06/01 02:40:21;;;;;;;1.20;1.10;;;;;;;13.29;100.00;96156.00;5025902;28;20241;-85
2022/06/01 02:42:51;;;;;;;5.17;1.20;;;;;;;13.23;100.00;96153.25;5025278;28;20206;-85
2022/06/01 02:45:20;;;;;;;1.40;1.00;;;;;;;13.23;100.00;96171.41;5026049;28;20210;-85
2022/06/01 02:47:48;;;;;;;5.13;1.20;;;;;;;13.22;100.00;96169.75;5043535;28;20202;-85
2022/06/01 02:50:18;;;;;;;2.90;1.13;;;;;;;13.32;100.00;96169.91;5039877;28;20201;-85
2022/06/01 02:52:45;;;;;;;3.13;1.10;;;;;;;13.24;100.00;96165.75;5023504;28;20214;-86
2022/06/01 02:55:14;;;;;;;3.83;1.00;;;;;;;13.30;100.00;96168.50;5030241;28;20224;-85
2022/06/01 02:57:43;;;;;;;2.13;1.03;;;;;;;13.30;100.00;96165.78;5030500;28;20321;-85
2022/06/01 03:00:18;;;;;;;1.70;1.20;;;;;;;13.34;100.00;96167.75;5039928;28;20243;-85
2022/06/01 03:02:46;;;;;;;1.00;1.00;;;;;;;13.28;100.00;96174.16;5040806;28;20202;-85
2022/06/01 03:05:15;;;;;;;1.30;1.00;;;;;;;13.23;100.00;96179.53;5027395;28;20206;-85
2022/06/01 03:07:42;;;;;;;2.93;1.03;;;;;;;13.24;100.00;96167.63;5025222;28;20423;-85
2022/06/01 03:10:10;;;;;;;1.33;1.10;;;;;;;13.27;100.00;96167.91;5026199;28;20217;-85
2022/06/01 03:12:37;;;;;;;1.67;1.30;;;;;;;13.20;100.00;96164.59;5038483;28;20214;-85
2022/06/01 03:15:05;;;;;;;1.20;1.10;;;;;;;13.16;100.00;96176.19;5024604;28;20210;-86
2022/06/01 03:17:34;;;;;;;1.17;1.07;;;;;;;13.20;100.00;96170.00;5028443;28;20341;-85
2022/06/01 03:20:01;;;;;;;1.53;1.20;;;;;;;13.22;100.00;96167.03;5031162;28;20229;-85
2022/06/01 03:22:29;;;;;;;1.03;1.00;;;;;;;13.17;100.00;96172.41;5023834;28;20206;-85
2022/06/01 03:24:55;;;;;;;1.27;1.17;;;;;;;13.14;100.00;96170.19;5040755;28;20206;-85
2022/06/01 03:27:23;;;;;;;2.20;1.00;;;;;;;13.16;100.00;96170.78;5022153;28;20213;-85
2022/06/01 03:29:50;;;;;;;3.43;1.10;;;;;;;13.16;100.00;96165.34;5032699;28;20202;-85
2022/06/01 03:32:17;;;;;;;1.90;1.00;;;;;;;13.15;100.00;96163.69;5048863;28;20220;-85
2022/06/01 03:34:45;;;;;;;1.07;0.93;;;;;;;13.08;100.00;96158.44;5039547;28;20214;-85
2022/06/01 03:37:12;;;;;;;1.70;0.97;;;;;;;13.14;100.00;96176.44;5037448;28;20206;-85
2022/06/01 03:39:39;;;;;;;3.97;1.20;;;;;;;13.17;100.00;96178.66;5047219;28;20229;-85
2022/06/01 03:42:07;;;;;;;2.93;1.00;;;;;;;13.17;100.00;96172.41;5021940;28;20210;-85
2022/06/01 03:47:19;;;;;;;1.43;1.20;;;;;;;13.10;100.00;96180.66;5009279;28;20203;-85
2022/06/01 03:49:47;;;;;;;2.30;1.27;;;;;;;13.10;100.00;96169.03;5008656;28;20214;-85
2022/06/01 03:52:14;;;;;;;1.60;1.30;;;;;;;13.09;100.00;96175.53;5005397;28;20218;-85
2022/06/01 03:54:42;;;;;;;3.00;1.23;;;;;;;12.97;100.00;96169.38;4994672;28;20203;-85
2022/06/01 03:57:12;;;;;;;4.73;1.60;;;;;;;12.96;100.00;96182.09;5007310;28;20196;-85
2022/06/01 03:59:40;;;;;;;2.20;1.40;;;;;;;12.92;100.00;96191.00;5004895;28;20215;-85
2022/06/01 04:02:08;;;;;;;3.20;1.10;;;;;;;13.01;100.00;96187.63;5007228;28;20221;-85
2022/06/01 04:04:35;;;;;;;1.13;0.90;;;;;;;12.98;100.00;96208.97;5006516;28;20216;-85
2022/06/01 04:07:04;;;;;;;1.60;1.13;;;;;;;12.93;100.00;96200.78;5005271;28;20202;-86
2022/06/01 04:09:32;;;;;;;4.10;2.53;;;;;;;12.94;100.00;96199.69;5026772;28;20258;-86
2022/06/01 04:11:59;;;;;;;1.73;1.13;;;;;;;12.90;100.00;96204.78;5010262;28;20256;-86
2022/06/01 04:14:27;;;;;;;2.53;1.10;;;;;;;13.00;100.00;96217.69;5023220;28;20214;-85
2022/06/01 04:16:54;;;;;;;1.20;1.10;;;;;;;12.95;100.00;96199.44;5027009;28;20317;-85
2022/06/01 04:19:21;;;;;;;3.67;1.10;;;;;;;13.02;100.00;96196.53;5041466;28;20217;-85
2022/06/01 04:21:51;;;;;;;2.10;1.20;;;;;;;13.00;100.00;96196.00;5022265;28;20204;-85
2022/06/01 04:24:26;;;;;;;1.00;1.00;;;;;;;12.92;100.00;96209.97;5037122;28;20253;-85
2022/06/01 04:26:53;;;;;;;4.60;1.13;;;;;;;13.04;100.00;96219.63;5009539;28;20202;-85
2022/06/01 04:29:20;;;;;;;1.10;1.00;;;;;;;13.04;100.00;96216.09;5024515;28;20203;-85
2022/06/01 04:31:48;;;;;;;1.83;1.10;;;;;;;13.01;100.00;96222.84;5008802;28;20207;-85
2022/06/01 04:34:16;;;;;;;2.20;1.10;;;;;;;13.01;100.00;96231.00;4994581;28;20203;-86
2022/06/01 04:36:43;;;;;;;2.67;1.20;;;;;;;13.05;100.00;96223.16;5007103;28;20223;-86
2022/06/01 04:39:10;;;;;;;2.93;1.50;;;;;;;13.01;100.00;96225.56;5010956;28;20203;-86
2022/06/01 04:41:39;;;;;;;3.17;1.20;;;;;;;13.00;100.00;96231.22;5019314;28;20238;-86
2022/06/01 04:44:06;;;;;;;2.50;1.53;;;;;;;13.00;100.00;96226.63;5027118;28;20205;-86
2022/06/01 04:46:33;;;;;;;2.70;1.00;;;;;;;13.14;100.00;96229.84;5043121;28;20238;-86
2022/06/01 04:49:00;;;;;;;1.60;1.30;;;;;;;13.18;100.00;96234.50;5028472;28;20199;-86
2022/06/01 04:51:27;;;;;;;1.73;1.30;;;;;;;13.16;100.00;96214.16;5043354;28;20225;-86
2022/06/01 04:53:54;;;;;;;0.80;0.80;;;;;;;13.30;100.00;96223.56;5045555;28;20198;-85
2022/06/01 04:56:21;;;;;;;2.40;1.17;;;;;;;13.28;100.00;96222.97;5026290;28;20202;-86
2022/06/01 04:58:50;;;;;;;1.57;1.30;;;;;;;13.34;100.00;96227.41;5026208;28;20213;-86
2022/06/01 05:01:17;;;;;;;1.30;1.20;;;;;;;13.36;100.00;96214.41;5040379;28;20227;-86
2022/06/01 05:03:44;;;;;;;2.70;1.00;;;;;;;13.38;100.00;96212.28;5041408;28;20199;-87
2022/06/01 05:06:11;;;;;;;1.27;1.10;;;;;;;13.50;100.00;96223.84;5030896;28;20252;-86
2022/06/01 05:08:38;;;;;;;1.57;1.00;;;;;;;13.51;100.00;96205.66;5031864;28;20303;-86
2022/06/01 05:11:06;;;;;;;2.00;0.90;;;;;;;13.48;100.00;96206.16;5028940;28;20222;-87
2022/06/01 05:13:34;;;;;;;4.10;1.20;;;;;;;13.49;100.00;96208.63;5031056;28;20212;-86
2022/06/01 05:16:03;;;;;;;1.63;1.07;;;;;;;13.51;100.00;96211.91;5046682;28;20219;-85
2022/06/01 05:18:31;;;;;;;1.07;1.07;;;;;;;13.45;100.00;96202.06;5023745;28;20202;-86
2022/06/01 05:20:58;;;;;;;1.47;1.10;;;;;;;13.53;100.00;96204.31;5033765;28;20244;-86
2022/06/01 05:23:26;;;;;;;2.63;1.10;;;;;;;13.48;100.00;96196.13;5044708;28;20209;-87
2022/06/01 05:25:55;;;;;;;1.43;1.10;;;;;;;13.45;100.00;96191.19;5041169;28;20198;-86
2022/06/01 05:28:25;;;;;;;5.67;1.80;;;;;;;13.58;100.00;96198.97;5027959;28;20245;-85
2022/06/01 05:30:56;;;;;;;1.00;0.90;;;;;;;13.61;100.00;96201.16;5018519;28;20215;-85
2022/06/01 05:33:24;;;;;;;1.63;1.40;;;;;;;13.60;100.00;96194.13;5027989;28;20212;-84
2022/06/01 05:35:51;;;;;;;1.10;1.00;;;;;;;13.56;100.00;96201.13;5048203;28;20201;-85
2022/06/01 05:38:18;;;;;;;1.30;1.10;;;;;;;13.62;100.00;96197.38;5038488;28;20206;-86
2022/06/01 05:40:45;;;;;;;1.40;1.07;;;;;;;13.64;100.00;96189.81;5032236;28;20226;-85
2022/06/01 05:43:17;;;;;;;1.00;0.90;;;;;;;13.74;100.00;96189.13;5023627;28;20206;-86
2022/06/01 05:45:45;;;;;;;0.90;0.90;;;;;;;13.68;100.00;96186.63;5024715;28;20408;-85
2022/06/01 05:48:14;;;;;;;1.67;1.00;;;;;;;13.78;100.00;96189.44;5028859;28;20221;-86
2022/06/01 05:50:43;;;;;;;1.57;1.07;;;;;;;13.68;100.00;96189.31;5042119;28;20263;-86
2022/06/01 05:53:11;;;;;;;2.77;1.20;;;;;;;13.68;100.00;96195.56;5025392;28;20208;-86
2022/06/01 05:55:39;;;;;;;2.67;1.00;;;;;;;13.70;100.00;96181.72;5030227;28;20271;-86
2022/06/01 05:58:13;;;;;;;0.90;0.80;;;;;;;13.72;100.00;96195.88;5020283;28;20209;-86
2022/06/01 06:00:43;;;;;;;2.90;1.00;;;;;;;13.68;100.00;96194.75;5028077;28;20283;-86
2022/06/01 06:03:10;;;;;;;1.40;1.00;;;;;;;13.66;100.00;96197.72;5026306;28;20248;-85
2022/06/01 06:08:24;;;;;;;2.33;1.10;;;;;;;13.79;100.00;96191.88;5028928;28;20218;-85
2022/06/01 06:10:51;;;;;;;1.47;0.93;;;;;;;13.80;100.00;96188.09;5029028;28;20233;-85
2022/06/01 06:13:18;;;;;;;4.23;1.10;;;;;;;13.81;100.00;96183.50;5032845;28;20213;-86
2022/06/01 06:15:45;;;;;;;0.97;0.90;;;;;;;13.80;100.00;96185.38;5029372;28;20433;-86
2022/06/01 06:18:13;;;;;;;1.30;0.90;;;;;;;13.76;100.00;96189.69;5031710;28;20194;-86
2022/06/01 06:20:42;;;;;;;3.17;0.97;;;;;;;13.58;100.00;96188.13;5021209;28;20329;-85
2022/06/01 06:23:10;;;;;;;3.27;1.00;;;;;;;13.57;100.00;96194.63;5026720;28;20203;-86
2022/06/01 06:25:39;;;;;;;1.37;0.80;;;;;;;13.57;100.00;96194.63;5027549;28;20260;-86
2022/06/01 06:28:07;;;;;;;0.90;0.90;;;;;;;13.58;100.00;96204.41;5030570;28;20210;-85
2022/06/01 06:30:35;;;;;;;0.80;0.80;;;;;;;13.60;100.00;96202.28;5028955;28;20198;-85
2022/06/01 06:33:02;;;;;;;2.50;0.70;;;;;;;13.57;100.00;96200.06;5015740;28;20198;-85
2022/06/01 06:35:29;;;;;;;1.73;0.80;;;;;;;13.53;100.00;96198.91;5027507;28;20532;-86
2022/06/01 06:37:56;;;;;;;1.10;0.90;;;;;;;13.53;100.00;96196.19;5040746;28;20213;-85
2022/06/01 06:40:24;;;;;;;0.90;0.80;;;;;;;13.52;100.00;96196.47;5045979;28;20240;-85
2022/06/01 06:42:52;;;;;;;1.93;0.90;;;;;;;13.50;100.00;96194.00;5026465;28;20217;-85
2022/06/01 06:45:20;;;;;;;0.83;0.73;;;;;;;13.43;100.00;96193.38;5037455;28;20210;-85
2022/06/01 06:47:47;;;;;;;3.80;1.00;;;;;;;13.40;100.00;96202.00;5042760;28;20202;-85
2022/06/01 06:50:16;;;;;;;2.83;0.90;;;;;;;13.39;100.00;96200.34;5026357;28;20211;-85
2022/06/01 06:52:43;;;;;;;1.43;0.90;;;;;;;13.35;100.00;96185.69;5041177;28;20210;-85
2022/06/01 06:55:11;;;;;;;0.83;0.83;;;;;;;13.39;100.00;96191.41;5030348;28;20199;-85
2022/06/01 06:57:38;;;;;;;2.97;1.10;;;;;;;13.39;100.00;96185.97;5048653;28;20202;-85
2022/06/01 07:00:10;;;;;;;1.77;0.83;;;;;;;13.40;100.00;96188.44;5048192;28;20210;-85
2022/06/01 07:02:37;;;;;;;1.73;1.10;;;;;;;13.37;100.00;96182.69;5027045;28;20206;-85
2022/06/01 07:05:05;;;;;;;0.90;0.90;;;;;;;13.30;100.00;96176.63;5048440;28;20268;-85
2022/06/01 07:07:32;;;;;;;7.37;1.13;;;;;;;13.29;100.00;96164.97;5045735;28;20256;-85
2022/06/01 07:09:59;;;;;;;2.03;1.40;;;;;;;13.38;100.00;96165.34;5030861;28;20293;-86
2022/06/01 07:12:28;;;;;;;1.20;1.00;;;;;;;13.52;100.00;96163.91;5046745;28;20202;-85
2022/06/01 07:14:55;;;;;;;2.20;1.10;;;;;;;13.91;100.00;96161.91;5026819;28;20213;-85
2022/06/01 07:17:24;;;;;;;2.10;1.10;;;;;;;14.33;100.00;96175.63;5039476;28;20277;-86
2022/06/01 07:19:55;;;;;;;1.17;1.00;;;;;;;14.69;100.00;96171.34;5024839;28;20214;-86
2022/06/01 07:22:23;;;;;;;1.00;0.90;;;;;;;15.01;100.00;96165.84;5020833;28;20238;-86
2022/06/01 07:24:50;;;;;;;0.80;0.80;;;;;;;15.31;100.00;96176.88;5029150;28;20224;-86
2022/06/01 07:27:18;;;;;;;3.23;1.10;;;;;;;15.20;100.00;96160.78;5027107;28;20974;-85
2022/06/01 07:29:45;;;;;;;1.13;1.00;;;;;;;15.44;100.00;96159.28;5030453;28;20291;-87
2022/06/01 07:32:12;;;;;;;3.37;1.20;;;;;;;15.78;100.00;96155.06;5029099;28;20278;-86
2022/06/01 07:34:40;;;;;;;1.43;1.00;;;;;;;16.08;100.00;96164.41;5030191;28;20285;-86
2022/06/01 07:45:22;;;;;;;1.30;1.17;;;;;;;17.43;100.00;96155.63;5047222;28;20212;-86
2022/06/01 07:47:49;;;;;;;1.23;1.00;;;;;;;17.55;100.00;96165.13;5029669;28;20190;-87
2022/06/01 07:50:17;;;;;;;1.30;0.90;;;;;;;17.63;100.00;96159.13;5025300;28;20271;-86
2022/06/01 07:52:44;;;;;;;1.50;1.10;;;;;;;17.59;100.00;96152.56;5028752;28;20206;-87
2022/06/01 07:55:11;;;;;;;1.60;1.00;;;;;;;17.64;100.00;96136.19;5021756;28;20207;-87
2022/06/01 07:57:38;;;;;;;1.60;0.90;;;;;;;17.93;100.00;96138.25;5033051;28;20210;-87
2022/06/01 08:00:07;;;;;;;1.80;0.80;;;;;;;18.27;100.00;96141.03;5037456;28;20217;-87
2022/06/01 08:02:39;;;;;;;4.23;1.03;;;;;;;18.34;100.00;96141.53;5047175;28;20218;-87
2022/06/01 08:05:08;;;;;;;1.90;0.90;;;;;;;18.61;100.00;96139.16;5028182;28;20206;-87
2022/06/01 08:07:36;;;;;;;1.67;1.00;;;;;;;18.54;100.00;96138.66;5047784;28;20209;-87
2022/06/01 08:10:05;;;;;;;1.43;0.93;;;;;;;18.48;100.00;96143.31;5024387;28;20210;-87
2022/06/01 08:15:16;;;;;;;1.67;1.07;;;;;;;18.83;100.00;96136.78;5042796;28;20260;-86
2022/06/01 08:17:44;;;;;;;2.53;1.30;;;;;;;19.14;100.00;96131.03;5021292;28;20203;-87
2022/06/01 08:20:12;;;;;;;1.20;1.10;;;;;;;19.49;100.00;96133.38;5041474;28;20256;-86
2022/06/01 08:22:41;;;;;;;1.50;1.30;;;;;;;19.66;98.96;96130.16;5026799;28;20227;-87
2022/06/01 08:25:10;;;;;;;3.10;1.27;;;;;;;19.98;98.16;96132.22;5043526;28;20256;-87
2022/06/01 08:27:37;;;;;;;3.35;1.27;;;;;;;20.14;91.81;96130.09;5027602;28;20206;-87
2022/06/01 08:30:06;;;;;;;2.45;1.58;;;;;;;20.02;89.38;96128.59;5037476;28;20246;-87
2022/06/01 08:32:33;;;;;;;7.45;1.50;;;;;;;19.98;86.44;96133.03;5021443;28;20207;-87
2022/06/01 08:35:00;;;;;;;2.20;1.60;;;;;;;20.24;88.56;96136.25;5042616;28;20233;-88
2022/06/01 08:37:27;;;;;;;2.88;1.58;;;;;;;20.38;84.90;96128.91;5029217;28;20207;-87
2022/06/01 08:39:56;;;;;;;2.80;2.05;;;;;;;20.55;87.24;96127.56;5040424;28;20209;-87
2022/06/01 08:42:24;;;;;;;4.32;1.63;;;;;;;20.69;85.92;96131.16;5034822;28;20233;-87
2022/06/01 08:44:54;;;;;;;1.38;1.20;;;;;;;20.50;96.24;96133.13;5044150;28;20206;-87
2022/06/01 08:47:27;;;;;;;1.98;1.40;;;;;;;20.63;95.08;96126.88;5024016;28;20207;-87
2022/06/01 08:49:56;;;;;;;3.05;1.40;;;;;;;20.65;91.83;96119.16;5026591;28;20213;-87
2022/06/01 08:52:25;;;;;;;2.97;1.45;;;;;;;20.90;91.91;96115.19;5028337;28;20191;-87
2022/06/01 08:54:52;;;;;;;3.60;2.03;;;;;;;21.10;89.37;96115.59;5044411;28;20198;-88
2022/06/01 08:57:26;;;;;;;1.98;1.42;;;;;;;20.83;89.79;96117.50;5041481;28;20194;-87
2022/06/01 09:00:02;;;;;;;4.00;1.80;;;;;;;21.08;92.38;96114.31;5025211;28;20198;-87
2022/06/01 09:02:43;;;;;;;3.58;1.80;;;;;;;21.44;92.63;96114.44;5028773;28;20253;-88
2022/06/01 09:05:14;;;;;;;2.80;1.30;;;;;;;21.68;81.75;96126.06;5041921;28;20218;-87
2022/06/01 09:07:46;;;;;;;4.30;1.40;;;;;;;21.86;80.91;96122.34;5043440;28;20256;-87
2022/06/01 09:10:31;;;;;;;4.07;1.90;;;;;;;21.83;75.43;96122.19;5035762;28;20212;-88
2022/06/01 09:13:04;;;;;;;3.22;1.55;;;;;;;21.93;75.69;96123.91;5015531;28;20194;-87
2022/06/01 09:15:41;;;;;;;2.38;1.33;;;;;;;22.08;74.02;96121.66;5021153;28;20217;-87
2022/06/01 09:18:08;;;;;;;3.33;1.50;;;;;;;22.38;73.13;96128.38;5026633;28;20267;-87
2022/06/01 09:23:23;;;;;;;1.67;1.50;;;;;;;22.10;65.60;96111.16;5019326;28;20209;-87
2022/06/01 09:25:53;;;;;;;3.25;1.67;;;;;;;22.09;65.79;96126.03;5024680;28;20198;-87
2022/06/01 09:28:24;;;;;;;3.88;1.70;;;;;;;22.10;67.50;96121.34;5020401;28;20236;-87
2022/06/01 09:30:56;;;;;;;5.53;2.85;;;;;;;22.35;69.11;96111.72;5025071;28;20214;-87
2022/06/01 09:33:26;;;;;;;2.20;1.50;;;;;;;22.42;69.78;96112.09;5037166;28;20225;-88
2022/06/01 09:36:02;;;;;;;3.47;1.77;;;;;;;22.43;69.58;96109.03;5022062;28;20210;-87
2022/06/01 09:38:40;;;;;;;3.55;1.85;;;;;;;22.57;69.41;96084.19;5035643;28;20291;-87
2022/06/01 09:41:10;;;;;;;1.92;1.40;;;;;;;22.84;68.83;96099.78;5041931;28;20240;-88
2022/06/01 09:43:42;;;;;;;1.88;1.35;;;;;;;22.86;66.13;96105.81;5044710;28;20226;-87
2022/06/01 09:46:24;;;;;;;2.85;1.73;;;;;;;22.93;64.69;96100.66;5043253;28;20233;-88
2022/06/01 09:48:52;;;;;;;1.70;1.48;;;;;;;22.88;67.61;96104.34;5019076;28;20220;-87
2022/06/01 09:51:23;;;;;;;2.60;2.10;;;;;;;23.04;65.84;96107.53;5025960;28;20216;-88
2022/06/01 09:53:53;;;;;;;3.70;2.15;;;;;;;23.19;63.29;96112.63;5039518;28;20207;-87
2022/06/01 09:56:31;;;;;;;2.53;1.80;;;;;;;22.98;62.14;96117.03;5021306;28;20207;-87
2022/06/01 10:07:22;;;;;;;2.88;1.73;;;;;;;22.74;63.90;96114.63;5026759;28;20233;-86
2022/06/01 10:09:54;;;;;;;2.28;1.67;;;;;;;22.76;64.93;96114.31;5024396;28;20234;-87
2022/06/01 10:12:31;;;;;;;2.65;1.70;;;;;;;22.78;62.36;96114.81;5039261;28;20210;-87
2022/06/01 10:15:03;;;;;;;5.50;1.88;;;;;;;22.79;62.96;96113.69;5038476;28;20197;-87
2022/06/01 10:17:34;;;;;;;4.90;2.00;;;;;;;22.67;61.20;96105.97;5028544;28;20210;-87
2022/06/01 10:20:16;;;;;;;3.92;2.45;;;;;;;22.67;63.62;96096.91;5025355;28;20210;-87
2022/06/01 10:22:50;;;;;;;4.18;2.30;;;;;;;22.51;63.89;96100.03;5043140;28;20221;-87
2022/06/01 10:25:21;;;;;;;6.60;3.28;;;;;;;22.44;64.48;96104.34;5031132;28;20247;-87
2022/06/01 10:27:56;;;;;;;4.50;2.40;;;;;;;22.21;65.56;96112.53;5035082;28;20365;-87
2022/06/01 10:30:29;;;;;;;2.47;2.10;;;;;;;21.96;62.58;96106.78;5038834;28;20209;-87
2022/06/01 10:33:00;;;;;;;2.65;1.88;;;;;;;21.86;61.33;96127.84;5036538;28;20326;-86
2022/06/01 10:35:39;;;;;;;2.28;1.77;;;;;;;21.59;63.64;96121.59;5035178;28;20237;-87
2022/06/01 10:38:15;;;;;;;4.70;1.80;;;;;;;21.72;62.24;96118.00;5048744;28;20268;-88
2022/06/01 10:40:47;;;;;;;5.70;2.10;;;;;;;21.57;62.69;96129.31;5031817;28;20237;-88
2022/06/01 10:43:32;;;;;;;2.17;1.80;;;;;;;21.39;62.17;96126.34;5043613;28;20225;-87
2022/06/01 10:46:10;;;;;;;3.10;2.20;;;;;;;21.24;63.45;96121.16;5045320;28;20252;-87
2022/06/01 10:48:46;;;;;;;5.95;1.98;;;;;;;21.08;65.14;96119.78;5031424;28;20297;-88
2022/06/01 10:51:20;;;;;;;6.13;2.20;;;;;;;21.09;64.80;96129.66;5038737;28;20206;-88
2022/06/01 10:53:57;;;;;;;2.25;1.92;;;;;;;21.01;63.76;96131.13;5029391;28;20202;-87
2022/06/01 10:56:25;;;;;;;2.42;2.00;;;;;;;20.97;65.16;96130.13;5031098;28;20622;-88
2022/06/01 10:58:55;;;;;;;2.28;1.92;;;;;;;20.95;65.25;96115.88;5044479;28;20222;-88
2022/06/01 11:01:41;;;;;;;2.97;2.10;;;;;;;21.03;65.57;96122.59;5030133;28;20259;-87
2022/06/01 11:04:34;;;;;;;3.65;2.10;;;;;;;21.14;65.30;96124.88;5044232;28;20251;-88
2022/06/01 11:07:28;;;;;;;2.38;2.00;;;;;;;21.30;64.98;96128.19;5027551;28;20302;-87
2022/06/01 11:10:04;;;;;;;2.67;2.25;;;;;;;21.57;64.05;96124.63;5049495;28;20206;-87
2022/06/01 11:12:44;;;;;;;2.97;2.10;;;;;;;21.73;62.39;96117.72;5045444;28;20209;-87
2022/06/01 11:15:18;;;;;;;2.85;1.90;;;;;;;21.87;62.27;96135.00;5044084;28;20202;-87
2022/06/01 11:17:51;;;;;;;3.63;1.73;;;;;;;21.93;63.72;96121.97;5032457;28;20228;-88
2022/06/01 11:20:44;;;;;;;2.15;1.95;;;;;;;21.91;64.00;96124.19;5028411;28;20214;-86
2022/06/01 11:23:22;;;;;;;3.95;2.10;;;;;;;21.67;63.15;96115.38;5038497;28;20218;-87
2022/06/01 11:25:59;;;;;;;2.47;2.17;;;;;;;21.62;64.28;96113.53;5037171;28;20217;-87
2022/06/01 11:28:39;;;;;;;4.57;2.30;;;;;;;21.67;67.07;96121.69;5035394;28;20220;-88
2022/06/01 11:31:15;;;;;;;2.72;2.13;;;;;;;21.63;67.34;96123.41;5037316;28;20206;-87
2022/06/01 11:33:50;;;;;;;4.28;2.15;;;;;;;21.66;68.08;96122.00;5036808;28;20282;-88
2022/06/01 11:36:26;;;;;;;2.13;1.92;;;;;;;21.47;68.76;96117.41;5019930;28;20209;-88
2022/06/01 11:39:11;;;;;;;3.55;2.00;;;;;;;21.36;67.94;96128.88;5043401;28;20201;-88
2022/06/01 11:41:41;;;;;;;4.55;2.10;;;;;;;21.30;68.39;96122.69;5029540;28;20272;-88
2022/06/01 11:44:14;;;;;;;3.95;2.20;;;;;;;21.45;68.89;96133.38;5026264;28;20217;-88
2022/06/01 11:46:50;;;;;;;5.30;2.55;;;;;;;21.48;68.33;96126.47;5044491;28;20255;-88
2022/06/01 11:49:32;;;;;;;2.72;2.53;;;;;;;21.53;67.96;96137.34;5043109;28;20223;-87
2022/06/01 11:52:16;;;;;;;5.30;2.47;;;;;;;21.47;69.29;96130.31;5027138;28;20208;-87
2022/06/01 11:54:43;;;;;;;5.13;2.65;;;;;;;21.47;69.70;96135.81;5037615;28;20206;-89
2022/06/01 11:57:25;;;;;;;3.20;2.22;;;;;;;21.61;71.17;96142.13;5021595;28;20229;-88
2022/06/01 11:59:55;;;;;;;3.38;2.30;;;;;;;21.65;70.43;96142.34;5044336;28;20210;-88
2022/06/01 12:02:44;;;;;;;3.90;2.50;;;;;;;21.59;70.80;96133.41;5044048;28;20300;-87
2022/06/01 12:05:20;;;;;;;3.53;2.78;;;;;;;21.46;72.39;96109.47;5045307;28;20210;-86
2022/06/01 12:07:51;;;;;;;4.03;2.97;;;;;;;21.51;73.32;96120.38;5028289;28;20202;-87
2022/06/01 12:10:29;;;;;;;3.13;2.83;;;;;;;21.43;73.26;96124.66;5044062;28;20321;-86
2022/06/01 12:13:03;;;;;;;3.92;3.20;;;;;;;21.40;75.11;96118.94;5029853;28;20202;-87
2022/06/01 12:15:34;;;;;;;6.18;2.78;;;;;;;21.35;75.42;96113.56;5045584;28;20236;-87